CDT,Max TemperatureF,Mean TemperatureF,Min TemperatureF,Max Dew PointF,MeanDew PointF,Min DewpointF,Max Humidity, Mean Humidity, Min Humidity, Max Sea Level PressureIn, Mean Sea Level PressureIn, Min Sea Level PressureIn, Max VisibilityMiles, Mean VisibilityMiles, Min VisibilityMiles, Max Wind SpeedMPH, Mean Wind SpeedMPH, Max Gust SpeedMPH,PrecipitationIn, CloudCover, Events, WindDirDegrees
2012-10-1,74,58,41,51,42,33,83,55,20,30.04,29.98,29.90,10,10,10,28,11,33,0.00,2,,337
2012-10-2,75,55,34,36,29,21,82,48,14,30.02,29.94,29.85,10,10,9,13,6,16,0.00,0,Snow,239
2012-10-3,82,62,41,41,34,28,70,43,15,29.94,29.84,29.73,10,10,10,26,14,35,0.00,1,,152
2012-10-4,55,43,30,40,32,25,70,53,35,30.36,30.19,29.98,10,10,10,32,17,41,0.00,3,,322
2012-10-5,53,38,23,27,23,20,88,57,20,30.37,30.32,30.26,10,10,10,23,9,29,0.00,0,,303
2012-10-6,48,36,24,25,21,18,75,55,29,30.41,30.36,30.32,10,10,10,22,10,28,0.00,2,,311
2012-10-7,59,37,15,27,20,13,92,58,23,30.34,30.16,29.96,10,10,10,22,9,28,0.00,0,,212
2012-10-8,75,58,41,44,31,24,65,41,16,29.94,29.83,29.71,10,10,10,25,11,33,T,4,Rain,223
2012-10-9,56,43,29,45,34,23,86,58,29,30.17,29.96,29.82,10,10,10,32,12,38,T,3,,318
2012-10-10,64,45,26,29,25,20,78,51,23,30.24,30.13,29.98,10,10,10,21,9,26,0.00,0,,240
2012-10-11,54,43,31,33,28,21,59,47,35,30.39,30.14,29.94,10,10,10,23,11,29,0.00,0,,24
2012-10-12,59,41,23,42,24,16,75,49,19,30.43,30.26,30.00,10,10,10,24,11,29,0.00,4,,141
2012-10-13,75,63,51,59,53,42,100,79,56,29.95,29.74,29.63,10,9,4,21,10,26,0.16,6,Rain,176
2012-10-14,67,53,38,51,38,32,86,58,29,29.99,29.86,29.68,10,10,10,26,13,32,0.00,0,,329
2012-10-15,75,53,31,43,37,29,92,60,27,29.99,29.90,29.71,10,10,10,15,8,22,0.00,0,,134
2012-10-16,77,63,48,46,44,42,86,58,24,29.68,29.51,29.35,10,10,7,20,8,26,0.00,0,,120
2012-10-17,67,58,49,49,36,18,74,46,16,29.53,29.41,29.25,10,10,10,33,21,47,T,5,Rain,296
2012-10-18,52,48,43,42,36,22,90,72,21,29.58,29.47,29.37,10,9,5,39,26,52,0.78,8,Rain,311
2012-10-19,45,41,37,39,39,37,89,84,76,29.83,29.74,29.58,10,9,4,38,19,47,0.10,8,Rain,326
2012-10-20,62,46,30,45,37,28,100,86,48,29.84,29.79,29.69,10,6,0,17,8,23,0.00,1,Fog,135
2012-10-21,76,59,42,49,44,39,89,63,36,29.86,29.75,29.68,10,10,9,18,8,23,0.00,1,,89
2012-10-22,61,56,51,52,48,46,86,75,64,29.88,29.83,29.75,10,10,10,14,7,17,T,7,,356
2012-10-23,63,54,44,55,52,46,100,89,78,29.79,29.74,29.68,10,6,0,14,4,15,0.00,6,Fog,206
2012-10-24,54,48,42,52,48,36,100,83,65,29.84,29.81,29.78,10,5,0,26,12,33,0.08,8,Fog-Rain,348
2012-10-25,42,37,31,38,32,27,96,83,70,30.37,30.03,29.77,10,8,1,30,20,37,0.65,8,Rain-Snow-Thunderstorm,330
2012-10-26,40,35,30,28,26,23,85,70,54,30.52,30.46,30.33,10,10,10,20,9,23,0.00,8,,313
2012-10-27,44,33,22,31,27,21,92,74,55,30.45,30.37,30.28,10,10,10,15,4,17,T,4,Rain,154
2012-10-28,52,40,28,32,30,25,92,68,44,30.34,30.27,30.20,10,10,10,20,10,24,0.00,4,,146
2012-10-29,56,46,35,33,30,29,76,57,38,30.23,30.17,30.12,10,10,10,22,13,28,0.00,2,,146
2012-10-30,53,42,30,30,28,24,82,59,36,30.15,30.11,30.06,10,10,10,14,7,18,T,3,,106
2012-10-31,60,43,25,33,29,23,92,64,36,30.10,30.05,29.99,10,10,8,9,2,13,0.00,1,,153